sensor_id;sensor_type;location;lat;lon;timestamp;P1;durP1;ratioP1;P2;durP2;ratioP2
19225;SDS011;9747;48.536;12.522;2022-08-21T00:00:33;1.38;;;1.38;;
19225;SDS011;9747;48.536;12.522;2022-08-21T00:03:01;1.20;;;1.15;;
19225;SDS011;9747;48.536;12.522;2022-08-21T00:05:33;1.30;;;1.30;;
19225;SDS011;9747;48.536;12.522;2022-08-21T00:08:07;1.40;;;1.30;;
19225;SDS011;9747;48.536;12.522;2022-08-21T00:10:35;1.40;;;1.40;;
19225;SDS011;9747;48.536;12.522;2022-08-21T00:13:03;1.60;;;1.50;;
19225;SDS011;9747;48.536;12.522;2022-08-21T00:15:31;1.40;;;1.30;;
19225;SDS011;9747;48.536;12.522;2022-08-21T00:18:01;1.70;;;1.60;;
19225;SDS011;9747;48.536;12.522;2022-08-21T00:20:30;1.40;;;1.30;;
19225;SDS011;9747;48.536;12.522;2022-08-21T00:22:59;1.20;;;1.20;;
19225;SDS011;9747;48.536;12.522;2022-08-21T00:25:28;1.60;;;1.40;;
19225;SDS011;9747;48.536;12.522;2022-08-21T00:27:55;1.40;;;1.30;;
19225;SDS011;9747;48.536;12.522;2022-08-21T00:30:24;1.40;;;1.30;;
19225;SDS011;9747;48.536;12.522;2022-08-21T00:32:53;1.50;;;1.48;;
19225;SDS011;9747;48.536;12.522;2022-08-21T00:35:23;1.30;;;1.30;;
19225;SDS011;9747;48.536;12.522;2022-08-21T00:37:53;1.33;;;1.33;;
19225;SDS011;9747;48.536;12.522;2022-08-21T00:40:22;1.40;;;1.40;;
19225;SDS011;9747;48.536;12.522;2022-08-21T00:42:55;1.10;;;1.10;;
19225;SDS011;9747;48.536;12.522;2022-08-21T00:45:23;1.20;;;1.20;;
19225;SDS011;9747;48.536;12.522;2022-08-21T00:47:52;1.20;;;1.20;;
19225;SDS011;9747;48.536;12.522;2022-08-21T00:50:21;1.20;;;1.20;;
19225;SDS011;9747;48.536;12.522;2022-08-21T00:52:49;1.50;;;1.40;;
19225;SDS011;9747;48.536;12.522;2022-08-21T00:55:19;1.40;;;1.30;;
19225;SDS011;9747;48.536;12.522;2022-08-21T00:57:49;1.40;;;1.30;;
19225;SDS011;9747;48.536;12.522;2022-08-21T01:00:22;1.20;;;1.20;;
19225;SDS011;9747;48.536;12.522;2022-08-21T01:02:54;1.40;;;1.30;;
19225;SDS011;9747;48.536;12.522;2022-08-21T01:05:21;1.40;;;1.30;;
19225;SDS011;9747;48.536;12.522;2022-08-21T01:07:49;1.30;;;1.30;;
19225;SDS011;9747;48.536;12.522;2022-08-21T01:10:17;1.40;;;1.40;;
19225;SDS011;9747;48.536;12.522;2022-08-21T01:12:45;1.30;;;1.30;;
19225;SDS011;9747;48.536;12.522;2022-08-21T01:15:13;1.15;;;1.15;;
19225;SDS011;9747;48.536;12.522;2022-08-21T01:17:41;1.38;;;1.30;;
19225;SDS011;9747;48.536;12.522;2022-08-21T01:20:10;1.23;;;1.20;;
19225;SDS011;9747;48.536;12.522;2022-08-21T01:22:40;1.17;;;1.17;;
19225;SDS011;9747;48.536;12.522;2022-08-21T01:25:08;1.35;;;1.25;;
19225;SDS011;9747;48.536;12.522;2022-08-21T01:27:37;1.10;;;1.10;;
19225;SDS011;9747;48.536;12.522;2022-08-21T01:30:08;1.25;;;1.25;;
19225;SDS011;9747;48.536;12.522;2022-08-21T01:32:38;1.85;;;1.27;;
19225;SDS011;9747;48.536;12.522;2022-08-21T01:35:07;1.30;;;1.30;;
19225;SDS011;9747;48.536;12.522;2022-08-21T01:37:35;1.13;;;1.13;;
19225;SDS011;9747;48.536;12.522;2022-08-21T01:40:04;1.17;;;1.17;;
19225;SDS011;9747;48.536;12.522;2022-08-21T01:42:33;1.13;;;1.13;;
19225;SDS011;9747;48.536;12.522;2022-08-21T01:45:01;1.17;;;1.13;;
19225;SDS011;9747;48.536;12.522;2022-08-21T01:47:28;1.13;;;1.13;;
19225;SDS011;9747;48.536;12.522;2022-08-21T01:49:56;1.23;;;1.23;;
19225;SDS011;9747;48.536;12.522;2022-08-21T01:52:23;1.20;;;1.20;;
19225;SDS011;9747;48.536;12.522;2022-08-21T01:54:51;1.20;;;1.20;;
19225;SDS011;9747;48.536;12.522;2022-08-21T01:57:20;1.33;;;1.30;;
19225;SDS011;9747;48.536;12.522;2022-08-21T01:59:47;1.48;;;1.30;;
19225;SDS011;9747;48.536;12.522;2022-08-21T02:02:15;1.60;;;1.50;;
19225;SDS011;9747;48.536;12.522;2022-08-21T02:04:42;1.23;;;1.23;;
19225;SDS011;9747;48.536;12.522;2022-08-21T02:07:09;1.10;;;1.10;;
19225;SDS011;9747;48.536;12.522;2022-08-21T02:09:37;1.10;;;1.10;;
19225;SDS011;9747;48.536;12.522;2022-08-21T02:12:07;2.00;;;1.48;;
19225;SDS011;9747;48.536;12.522;2022-08-21T02:14:36;1.33;;;1.23;;
19225;SDS011;9747;48.536;12.522;2022-08-21T02:17:04;1.20;;;1.20;;
19225;SDS011;9747;48.536;12.522;2022-08-21T02:19:32;1.20;;;1.20;;
19225;SDS011;9747;48.536;12.522;2022-08-21T02:21:59;1.10;;;1.10;;
19225;SDS011;9747;48.536;12.522;2022-08-21T02:24:27;1.10;;;1.10;;
19225;SDS011;9747;48.536;12.522;2022-08-21T02:26:54;1.10;;;1.10;;
19225;SDS011;9747;48.536;12.522;2022-08-21T02:29:21;1.20;;;1.20;;
19225;SDS011;9747;48.536;12.522;2022-08-21T02:31:50;1.20;;;1.20;;
19225;SDS011;9747;48.536;12.522;2022-08-21T02:34:18;1.30;;;1.30;;
19225;SDS011;9747;48.536;12.522;2022-08-21T02:36:45;1.20;;;1.20;;
19225;SDS011;9747;48.536;12.522;2022-08-21T02:39:13;1.20;;;1.20;;
19225;SDS011;9747;48.536;12.522;2022-08-21T02:41:40;1.33;;;1.33;;
19225;SDS011;9747;48.536;12.522;2022-08-21T02:44:08;1.23;;;1.23;;
19225;SDS011;9747;48.536;12.522;2022-08-21T02:46:35;1.20;;;1.20;;
19225;SDS011;9747;48.536;12.522;2022-08-21T02:49:04;1.05;;;1.05;;
19225;SDS011;9747;48.536;12.522;2022-08-21T02:51:32;1.10;;;1.10;;
19225;SDS011;9747;48.536;12.522;2022-08-21T02:53:59;1.40;;;1.30;;
19225;SDS011;9747;48.536;12.522;2022-08-21T02:56:26;1.10;;;1.10;;
19225;SDS011;9747;48.536;12.522;2022-08-21T02:58:54;1.10;;;1.10;;
19225;SDS011;9747;48.536;12.522;2022-08-21T03:01:21;1.10;;;1.10;;
19225;SDS011;9747;48.536;12.522;2022-08-21T03:03:48;1.10;;;1.10;;
19225;SDS011;9747;48.536;12.522;2022-08-21T03:06:18;1.10;;;1.10;;
19225;SDS011;9747;48.536;12.522;2022-08-21T03:08:47;1.23;;;1.23;;
19225;SDS011;9747;48.536;12.522;2022-08-21T03:11:16;1.00;;;1.00;;
19225;SDS011;9747;48.536;12.522;2022-08-21T03:13:45;1.20;;;1.10;;
19225;SDS011;9747;48.536;12.522;2022-08-21T03:16:13;1.30;;;1.30;;
19225;SDS011;9747;48.536;12.522;2022-08-21T03:18:40;1.20;;;1.20;;
19225;SDS011;9747;48.536;12.522;2022-08-21T03:21:08;1.20;;;1.20;;
19225;SDS011;9747;48.536;12.522;2022-08-21T03:23:37;1.10;;;1.10;;
19225;SDS011;9747;48.536;12.522;2022-08-21T03:26:07;1.15;;;1.00;;
19225;SDS011;9747;48.536;12.522;2022-08-21T03:28:35;1.13;;;1.13;;
19225;SDS011;9747;48.536;12.522;2022-08-21T03:31:03;1.00;;;1.00;;
19225;SDS011;9747;48.536;12.522;2022-08-21T03:33:31;1.10;;;1.10;;
19225;SDS011;9747;48.536;12.522;2022-08-21T03:35:59;1.25;;;1.25;;
19225;SDS011;9747;48.536;12.522;2022-08-21T03:38:30;1.17;;;1.08;;
19225;SDS011;9747;48.536;12.522;2022-08-21T03:41:00;1.25;;;1.15;;
19225;SDS011;9747;48.536;12.522;2022-08-21T03:43:28;1.30;;;1.30;;
19225;SDS011;9747;48.536;12.522;2022-08-21T03:45:55;1.00;;;1.00;;
19225;SDS011;9747;48.536;12.522;2022-08-21T03:48:23;1.10;;;1.10;;
19225;SDS011;9747;48.536;12.522;2022-08-21T03:50:51;1.27;;;1.17;;
19225;SDS011;9747;48.536;12.522;2022-08-21T03:53:19;1.20;;;1.20;;
19225;SDS011;9747;48.536;12.522;2022-08-21T03:55:47;1.30;;;1.30;;
19225;SDS011;9747;48.536;12.522;2022-08-21T03:58:19;1.08;;;1.08;;
19225;SDS011;9747;48.536;12.522;2022-08-21T04:00:52;1.30;;;1.17;;
19225;SDS011;9747;48.536;12.522;2022-08-21T04:03:22;1.20;;;1.20;;
19225;SDS011;9747;48.536;12.522;2022-08-21T04:05:50;1.17;;;1.17;;
19225;SDS011;9747;48.536;12.522;2022-08-21T04:08:18;1.10;;;1.10;;
19225;SDS011;9747;48.536;12.522;2022-08-21T04:10:46;1.17;;;1.15;;
19225;SDS011;9747;48.536;12.522;2022-08-21T04:13:16;1.10;;;1.10;;
19225;SDS011;9747;48.536;12.522;2022-08-21T04:15:45;1.20;;;1.20;;
19225;SDS011;9747;48.536;12.522;2022-08-21T04:18:13;1.17;;;1.17;;
19225;SDS011;9747;48.536;12.522;2022-08-21T04:20:41;1.25;;;1.25;;
19225;SDS011;9747;48.536;12.522;2022-08-21T04:23:09;1.10;;;1.10;;
19225;SDS011;9747;48.536;12.522;2022-08-21T04:25:36;1.20;;;1.10;;
19225;SDS011;9747;48.536;12.522;2022-08-21T04:28:04;1.13;;;1.13;;
19225;SDS011;9747;48.536;12.522;2022-08-21T04:30:33;1.20;;;1.20;;
19225;SDS011;9747;48.536;12.522;2022-08-21T04:33:00;1.20;;;1.20;;
19225;SDS011;9747;48.536;12.522;2022-08-21T04:35:28;1.10;;;1.10;;
19225;SDS011;9747;48.536;12.522;2022-08-21T04:37:56;1.20;;;1.20;;
19225;SDS011;9747;48.536;12.522;2022-08-21T04:40:24;1.20;;;1.20;;
19225;SDS011;9747;48.536;12.522;2022-08-21T04:42:55;1.00;;;1.00;;
19225;SDS011;9747;48.536;12.522;2022-08-21T04:45:27;1.00;;;1.00;;
19225;SDS011;9747;48.536;12.522;2022-08-21T04:47:58;1.20;;;1.20;;
19225;SDS011;9747;48.536;12.522;2022-08-21T04:50:29;1.13;;;1.13;;
19225;SDS011;9747;48.536;12.522;2022-08-21T04:53:03;1.13;;;1.13;;
19225;SDS011;9747;48.536;12.522;2022-08-21T04:55:33;1.20;;;1.20;;
19225;SDS011;9747;48.536;12.522;2022-08-21T04:58:00;1.20;;;1.20;;
19225;SDS011;9747;48.536;12.522;2022-08-21T05:00:28;1.40;;;1.30;;
19225;SDS011;9747;48.536;12.522;2022-08-21T05:02:55;1.60;;;1.20;;
19225;SDS011;9747;48.536;12.522;2022-08-21T05:05:25;1.02;;;1.02;;
19225;SDS011;9747;48.536;12.522;2022-08-21T05:07:55;1.35;;;1.30;;
19225;SDS011;9747;48.536;12.522;2022-08-21T05:10:24;1.00;;;1.00;;
19225;SDS011;9747;48.536;12.522;2022-08-21T05:12:52;1.20;;;1.20;;
19225;SDS011;9747;48.536;12.522;2022-08-21T05:15:20;1.17;;;1.17;;
19225;SDS011;9747;48.536;12.522;2022-08-21T05:17:47;1.27;;;1.27;;
19225;SDS011;9747;48.536;12.522;2022-08-21T05:20:16;1.30;;;1.20;;
19225;SDS011;9747;48.536;12.522;2022-08-21T05:22:45;1.10;;;1.10;;
19225;SDS011;9747;48.536;12.522;2022-08-21T05:25:12;1.50;;;1.50;;
19225;SDS011;9747;48.536;12.522;2022-08-21T05:27:40;1.30;;;1.30;;
19225;SDS011;9747;48.536;12.522;2022-08-21T05:30:08;1.50;;;1.40;;
19225;SDS011;9747;48.536;12.522;2022-08-21T05:32:37;1.30;;;1.30;;
19225;SDS011;9747;48.536;12.522;2022-08-21T05:35:05;1.45;;;1.45;;
19225;SDS011;9747;48.536;12.522;2022-08-21T05:37:35;1.33;;;1.33;;
19225;SDS011;9747;48.536;12.522;2022-08-21T05:40:03;1.27;;;1.27;;
19225;SDS011;9747;48.536;12.522;2022-08-21T05:42:32;1.10;;;1.10;;
19225;SDS011;9747;48.536;12.522;2022-08-21T05:44:59;1.45;;;1.35;;
19225;SDS011;9747;48.536;12.522;2022-08-21T05:47:27;1.38;;;1.38;;
19225;SDS011;9747;48.536;12.522;2022-08-21T05:49:54;1.50;;;1.40;;
19225;SDS011;9747;48.536;12.522;2022-08-21T05:52:22;1.85;;;1.75;;
19225;SDS011;9747;48.536;12.522;2022-08-21T05:54:50;1.50;;;1.40;;
19225;SDS011;9747;48.536;12.522;2022-08-21T05:57:19;1.40;;;1.40;;
19225;SDS011;9747;48.536;12.522;2022-08-21T05:59:47;1.40;;;1.40;;
19225;SDS011;9747;48.536;12.522;2022-08-21T06:02:16;1.50;;;1.50;;
19225;SDS011;9747;48.536;12.522;2022-08-21T06:04:44;1.73;;;1.63;;
19225;SDS011;9747;48.536;12.522;2022-08-21T06:07:11;1.55;;;1.55;;
19225;SDS011;9747;48.536;12.522;2022-08-21T06:09:39;1.20;;;1.20;;
19225;SDS011;9747;48.536;12.522;2022-08-21T06:12:09;1.40;;;1.40;;
19225;SDS011;9747;48.536;12.522;2022-08-21T06:14:39;1.75;;;1.75;;
19225;SDS011;9747;48.536;12.522;2022-08-21T06:17:08;1.50;;;1.50;;
19225;SDS011;9747;48.536;12.522;2022-08-21T06:19:38;1.67;;;1.60;;
19225;SDS011;9747;48.536;12.522;2022-08-21T06:22:06;1.40;;;1.40;;
19225;SDS011;9747;48.536;12.522;2022-08-21T06:24:33;1.95;;;1.85;;
19225;SDS011;9747;48.536;12.522;2022-08-21T06:27:03;1.70;;;1.60;;
19225;SDS011;9747;48.536;12.522;2022-08-21T06:29:34;1.75;;;1.65;;
19225;SDS011;9747;48.536;12.522;2022-08-21T06:32:03;2.00;;;1.85;;
19225;SDS011;9747;48.536;12.522;2022-08-21T06:34:35;2.90;;;1.85;;
19225;SDS011;9747;48.536;12.522;2022-08-21T06:37:03;1.60;;;1.60;;
19225;SDS011;9747;48.536;12.522;2022-08-21T06:39:30;1.67;;;1.67;;
19225;SDS011;9747;48.536;12.522;2022-08-21T06:41:58;1.58;;;1.58;;
19225;SDS011;9747;48.536;12.522;2022-08-21T06:44:27;2.10;;;2.00;;
19225;SDS011;9747;48.536;12.522;2022-08-21T06:46:56;1.70;;;1.70;;
19225;SDS011;9747;48.536;12.522;2022-08-21T06:49:23;2.03;;;1.92;;
19225;SDS011;9747;48.536;12.522;2022-08-21T06:51:51;2.00;;;1.90;;
19225;SDS011;9747;48.536;12.522;2022-08-21T06:54:18;1.70;;;1.70;;
19225;SDS011;9747;48.536;12.522;2022-08-21T06:56:46;2.00;;;1.90;;
19225;SDS011;9747;48.536;12.522;2022-08-21T06:59:13;2.20;;;2.10;;
19225;SDS011;9747;48.536;12.522;2022-08-21T07:01:40;2.03;;;1.92;;
19225;SDS011;9747;48.536;12.522;2022-08-21T07:04:09;2.30;;;2.20;;
19225;SDS011;9747;48.536;12.522;2022-08-21T07:06:37;2.20;;;2.10;;
19225;SDS011;9747;48.536;12.522;2022-08-21T07:09:04;2.10;;;2.00;;
19225;SDS011;9747;48.536;12.522;2022-08-21T07:11:32;2.03;;;1.92;;
19225;SDS011;9747;48.536;12.522;2022-08-21T07:13:59;2.30;;;2.20;;
19225;SDS011;9747;48.536;12.522;2022-08-21T07:16:26;2.10;;;2.00;;
19225;SDS011;9747;48.536;12.522;2022-08-21T07:18:54;2.33;;;2.22;;
19225;SDS011;9747;48.536;12.522;2022-08-21T07:21:23;2.50;;;2.40;;
19225;SDS011;9747;48.536;12.522;2022-08-21T07:23:50;2.40;;;2.30;;
19225;SDS011;9747;48.536;12.522;2022-08-21T07:26:19;2.28;;;2.17;;
19225;SDS011;9747;48.536;12.522;2022-08-21T07:28:49;2.47;;;2.35;;
19225;SDS011;9747;48.536;12.522;2022-08-21T07:31:17;2.45;;;2.35;;
19225;SDS011;9747;48.536;12.522;2022-08-21T07:33:46;2.20;;;2.10;;
19225;SDS011;9747;48.536;12.522;2022-08-21T07:36:14;2.97;;;2.78;;
19225;SDS011;9747;48.536;12.522;2022-08-21T07:38:43;2.60;;;2.50;;
19225;SDS011;9747;48.536;12.522;2022-08-21T07:41:13;2.40;;;2.30;;
19225;SDS011;9747;48.536;12.522;2022-08-21T07:43:43;2.83;;;2.63;;
19225;SDS011;9747;48.536;12.522;2022-08-21T07:46:11;2.97;;;2.78;;
19225;SDS011;9747;48.536;12.522;2022-08-21T07:48:39;2.40;;;2.30;;
19225;SDS011;9747;48.536;12.522;2022-08-21T07:51:07;2.70;;;2.50;;
19225;SDS011;9747;48.536;12.522;2022-08-21T07:53:36;2.70;;;2.60;;
19225;SDS011;9747;48.536;12.522;2022-08-21T07:56:07;2.50;;;2.40;;
19225;SDS011;9747;48.536;12.522;2022-08-21T07:58:36;2.83;;;2.67;;
19225;SDS011;9747;48.536;12.522;2022-08-21T08:01:04;2.92;;;2.72;;
19225;SDS011;9747;48.536;12.522;2022-08-21T08:03:32;2.63;;;2.53;;
19225;SDS011;9747;48.536;12.522;2022-08-21T08:06:00;2.50;;;2.40;;
19225;SDS011;9747;48.536;12.522;2022-08-21T08:08:29;2.78;;;2.67;;
19225;SDS011;9747;48.536;12.522;2022-08-21T08:10:57;3.17;;;2.97;;
19225;SDS011;9747;48.536;12.522;2022-08-21T08:13:27;2.65;;;2.45;;
19225;SDS011;9747;48.536;12.522;2022-08-21T08:15:54;2.75;;;2.58;;
19225;SDS011;9747;48.536;12.522;2022-08-21T08:18:22;2.67;;;2.58;;
19225;SDS011;9747;48.536;12.522;2022-08-21T08:20:49;2.85;;;2.65;;
19225;SDS011;9747;48.536;12.522;2022-08-21T08:23:17;2.70;;;2.60;;
19225;SDS011;9747;48.536;12.522;2022-08-21T08:25:44;3.08;;;2.88;;
19225;SDS011;9747;48.536;12.522;2022-08-21T08:28:12;3.10;;;2.70;;
19225;SDS011;9747;48.536;12.522;2022-08-21T08:30:41;2.72;;;2.63;;
19225;SDS011;9747;48.536;12.522;2022-08-21T08:33:08;3.42;;;3.22;;
19225;SDS011;9747;48.536;12.522;2022-08-21T08:35:35;2.88;;;2.65;;
19225;SDS011;9747;48.536;12.522;2022-08-21T08:38:03;3.20;;;3.00;;
19225;SDS011;9747;48.536;12.522;2022-08-21T08:40:33;3.22;;;2.90;;
19225;SDS011;9747;48.536;12.522;2022-08-21T08:43:06;2.75;;;2.65;;
19225;SDS011;9747;48.536;12.522;2022-08-21T08:45:34;2.92;;;2.72;;
19225;SDS011;9747;48.536;12.522;2022-08-21T08:48:05;3.00;;;2.80;;
19225;SDS011;9747;48.536;12.522;2022-08-21T08:50:38;3.10;;;2.90;;
19225;SDS011;9747;48.536;12.522;2022-08-21T08:53:10;3.20;;;3.00;;
19225;SDS011;9747;48.536;12.522;2022-08-21T08:55:47;3.17;;;2.97;;
19225;SDS011;9747;48.536;12.522;2022-08-21T08:58:16;3.08;;;2.88;;
19225;SDS011;9747;48.536;12.522;2022-08-21T09:00:50;3.13;;;2.92;;
19225;SDS011;9747;48.536;12.522;2022-08-21T09:03:20;3.10;;;2.90;;
19225;SDS011;9747;48.536;12.522;2022-08-21T09:05:50;3.53;;;3.33;;
19225;SDS011;9747;48.536;12.522;2022-08-21T09:08:36;3.58;;;3.28;;
19225;SDS011;9747;48.536;12.522;2022-08-21T09:11:15;3.38;;;3.17;;
19225;SDS011;9747;48.536;12.522;2022-08-21T09:13:56;3.20;;;3.00;;
19225;SDS011;9747;48.536;12.522;2022-08-21T09:16:35;3.40;;;3.20;;
19225;SDS011;9747;48.536;12.522;2022-08-21T09:19:11;3.63;;;3.33;;
19225;SDS011;9747;48.536;12.522;2022-08-21T09:21:53;3.30;;;3.10;;
19225;SDS011;9747;48.536;12.522;2022-08-21T09:24:29;3.17;;;2.97;;
19225;SDS011;9747;48.536;12.522;2022-08-21T09:27:02;3.10;;;2.90;;
19225;SDS011;9747;48.536;12.522;2022-08-21T09:29:34;3.60;;;3.40;;
19225;SDS011;9747;48.536;12.522;2022-08-21T09:32:20;3.50;;;3.30;;
19225;SDS011;9747;48.536;12.522;2022-08-21T09:34:59;3.97;;;3.67;;
19225;SDS011;9747;48.536;12.522;2022-08-21T09:37:30;3.60;;;3.30;;
19225;SDS011;9747;48.536;12.522;2022-08-21T09:40:00;3.45;;;3.25;;
19225;SDS011;9747;48.536;12.522;2022-08-21T09:42:30;3.80;;;3.47;;
19225;SDS011;9747;48.536;12.522;2022-08-21T09:45:10;3.90;;;3.60;;
19225;SDS011;9747;48.536;12.522;2022-08-21T09:47:40;3.50;;;3.30;;
19225;SDS011;9747;48.536;12.522;2022-08-21T09:50:12;3.90;;;3.60;;
19225;SDS011;9747;48.536;12.522;2022-08-21T09:52:42;3.65;;;3.40;;
19225;SDS011;9747;48.536;12.522;2022-08-21T09:55:18;3.38;;;3.17;;
19225;SDS011;9747;48.536;12.522;2022-08-21T09:58:09;4.05;;;3.83;;
19225;SDS011;9747;48.536;12.522;2022-08-21T10:00:36;4.47;;;4.18;;
19225;SDS011;9747;48.536;12.522;2022-08-21T10:03:08;4.18;;;3.88;;
19225;SDS011;9747;48.536;12.522;2022-08-21T10:05:49;4.32;;;4.03;;
19225;SDS011;9747;48.536;12.522;2022-08-21T10:08:19;4.15;;;3.85;;
19225;SDS011;9747;48.536;12.522;2022-08-21T10:10:50;4.82;;;4.43;;
19225;SDS011;9747;48.536;12.522;2022-08-21T10:13:23;4.18;;;3.88;;
19225;SDS011;9747;48.536;12.522;2022-08-21T10:16:02;4.15;;;3.80;;
19225;SDS011;9747;48.536;12.522;2022-08-21T10:18:43;3.95;;;3.65;;
19225;SDS011;9747;48.536;12.522;2022-08-21T10:21:20;3.88;;;3.60;;
19225;SDS011;9747;48.536;12.522;2022-08-21T10:23:54;3.60;;;3.40;;
19225;SDS011;9747;48.536;12.522;2022-08-21T10:26:32;3.83;;;3.63;;
19225;SDS011;9747;48.536;12.522;2022-08-21T10:29:12;4.00;;;3.70;;
19225;SDS011;9747;48.536;12.522;2022-08-21T10:31:51;3.63;;;3.42;;
19225;SDS011;9747;48.536;12.522;2022-08-21T10:34:27;3.65;;;3.35;;
19225;SDS011;9747;48.536;12.522;2022-08-21T10:37:10;3.30;;;3.10;;
19225;SDS011;9747;48.536;12.522;2022-08-21T10:39:49;4.10;;;3.72;;
19225;SDS011;9747;48.536;12.522;2022-08-21T10:42:31;3.75;;;3.45;;
19225;SDS011;9747;48.536;12.522;2022-08-21T10:45:07;3.97;;;3.70;;
19225;SDS011;9747;48.536;12.522;2022-08-21T10:47:44;3.50;;;3.30;;
19225;SDS011;9747;48.536;12.522;2022-08-21T10:50:17;4.07;;;3.78;;
19225;SDS011;9747;48.536;12.522;2022-08-21T10:52:56;4.05;;;3.75;;
19225;SDS011;9747;48.536;12.522;2022-08-21T10:55:39;3.63;;;3.42;;
19225;SDS011;9747;48.536;12.522;2022-08-21T10:58:11;4.00;;;3.70;;
19225;SDS011;9747;48.536;12.522;2022-08-21T11:00:41;3.80;;;3.60;;
19225;SDS011;9747;48.536;12.522;2022-08-21T11:03:12;3.42;;;3.22;;
19225;SDS011;9747;48.536;12.522;2022-08-21T11:05:43;3.55;;;3.25;;
19225;SDS011;9747;48.536;12.522;2022-08-21T11:08:17;3.75;;;3.55;;
19225;SDS011;9747;48.536;12.522;2022-08-21T11:10:50;3.80;;;3.50;;
19225;SDS011;9747;48.536;12.522;2022-08-21T11:13:22;3.78;;;3.47;;
19225;SDS011;9747;48.536;12.522;2022-08-21T11:15:56;3.67;;;3.42;;
19225;SDS011;9747;48.536;12.522;2022-08-21T11:18:29;3.97;;;3.75;;
19225;SDS011;9747;48.536;12.522;2022-08-21T11:21:02;3.70;;;3.50;;
19225;SDS011;9747;48.536;12.522;2022-08-21T11:23:40;3.42;;;3.22;;
19225;SDS011;9747;48.536;12.522;2022-08-21T11:26:13;3.78;;;3.53;;
19225;SDS011;9747;48.536;12.522;2022-08-21T11:28:46;3.75;;;3.50;;
19225;SDS011;9747;48.536;12.522;2022-08-21T11:31:24;3.42;;;3.22;;
19225;SDS011;9747;48.536;12.522;2022-08-21T11:34:10;3.70;;;3.47;;
19225;SDS011;9747;48.536;12.522;2022-08-21T11:36:51;3.65;;;3.35;;
19225;SDS011;9747;48.536;12.522;2022-08-21T11:39:28;3.65;;;3.45;;
19225;SDS011;9747;48.536;12.522;2022-08-21T11:42:03;3.92;;;3.63;;
19225;SDS011;9747;48.536;12.522;2022-08-21T11:44:42;3.42;;;3.20;;
19225;SDS011;9747;48.536;12.522;2022-08-21T11:47:17;3.90;;;3.60;;
19225;SDS011;9747;48.536;12.522;2022-08-21T11:49:53;3.40;;;3.20;;
19225;SDS011;9747;48.536;12.522;2022-08-21T11:52:31;3.85;;;3.55;;
19225;SDS011;9747;48.536;12.522;2022-08-21T11:55:02;3.58;;;3.38;;
19225;SDS011;9747;48.536;12.522;2022-08-21T11:57:34;4.00;;;3.67;;
19225;SDS011;9747;48.536;12.522;2022-08-21T12:00:06;3.97;;;3.67;;
19225;SDS011;9747;48.536;12.522;2022-08-21T12:02:48;3.50;;;3.20;;
19225;SDS011;9747;48.536;12.522;2022-08-21T12:05:27;3.50;;;3.30;;
19225;SDS011;9747;48.536;12.522;2022-08-21T12:08:03;3.47;;;3.28;;
19225;SDS011;9747;48.536;12.522;2022-08-21T12:10:36;4.05;;;3.75;;
19225;SDS011;9747;48.536;12.522;2022-08-21T12:13:06;3.50;;;3.30;;
19225;SDS011;9747;48.536;12.522;2022-08-21T12:15:38;3.38;;;3.17;;
19225;SDS011;9747;48.536;12.522;2022-08-21T12:18:18;3.83;;;3.53;;
19225;SDS011;9747;48.536;12.522;2022-08-21T12:21:03;3.80;;;3.50;;
19225;SDS011;9747;48.536;12.522;2022-08-21T12:23:44;3.80;;;3.60;;
19225;SDS011;9747;48.536;12.522;2022-08-21T12:26:22;3.63;;;3.42;;
19225;SDS011;9747;48.536;12.522;2022-08-21T12:29:03;3.50;;;3.30;;
19225;SDS011;9747;48.536;12.522;2022-08-21T12:31:34;3.63;;;3.40;;
19225;SDS011;9747;48.536;12.522;2022-08-21T12:34:02;3.78;;;3.50;;
19225;SDS011;9747;48.536;12.522;2022-08-21T12:36:38;3.63;;;3.42;;
19225;SDS011;9747;48.536;12.522;2022-08-21T12:39:11;3.50;;;3.30;;
19225;SDS011;9747;48.536;12.522;2022-08-21T12:41:47;3.92;;;3.63;;
19225;SDS011;9747;48.536;12.522;2022-08-21T12:44:20;3.95;;;3.65;;
19225;SDS011;9747;48.536;12.522;2022-08-21T12:46:51;3.83;;;3.55;;
19225;SDS011;9747;48.536;12.522;2022-08-21T12:49:24;3.50;;;3.30;;
19225;SDS011;9747;48.536;12.522;2022-08-21T12:51:56;3.85;;;3.65;;
19225;SDS011;9747;48.536;12.522;2022-08-21T12:54:30;3.70;;;3.50;;
19225;SDS011;9747;48.536;12.522;2022-08-21T12:57:06;3.35;;;3.15;;
19225;SDS011;9747;48.536;12.522;2022-08-21T12:59:36;3.72;;;3.42;;
19225;SDS011;9747;48.536;12.522;2022-08-21T13:02:09;2.97;;;2.88;;
19225;SDS011;9747;48.536;12.522;2022-08-21T13:04:43;3.10;;;2.90;;
19225;SDS011;9747;48.536;12.522;2022-08-21T13:09:57;3.33;;;3.13;;
19225;SDS011;9747;48.536;12.522;2022-08-21T13:12:30;3.40;;;3.20;;
19225;SDS011;9747;48.536;12.522;2022-08-21T13:14:59;3.45;;;3.25;;
19225;SDS011;9747;48.536;12.522;2022-08-21T13:17:30;3.50;;;3.30;;
19225;SDS011;9747;48.536;12.522;2022-08-21T13:20:04;3.38;;;3.17;;
19225;SDS011;9747;48.536;12.522;2022-08-21T13:22:40;3.30;;;3.10;;
19225;SDS011;9747;48.536;12.522;2022-08-21T13:25:09;3.28;;;3.08;;
19225;SDS011;9747;48.536;12.522;2022-08-21T13:27:42;3.53;;;3.33;;
19225;SDS011;9747;48.536;12.522;2022-08-21T13:30:14;3.10;;;2.90;;
19225;SDS011;9747;48.536;12.522;2022-08-21T13:32:47;3.05;;;2.90;;
19225;SDS011;9747;48.536;12.522;2022-08-21T13:35:18;3.42;;;3.22;;
19225;SDS011;9747;48.536;12.522;2022-08-21T13:37:49;3.30;;;3.10;;
19225;SDS011;9747;48.536;12.522;2022-08-21T13:40:18;3.30;;;3.10;;
19225;SDS011;9747;48.536;12.522;2022-08-21T13:42:55;2.85;;;2.75;;
19225;SDS011;9747;48.536;12.522;2022-08-21T13:45:25;3.40;;;3.20;;
19225;SDS011;9747;48.536;12.522;2022-08-21T13:47:56;3.53;;;3.33;;
19225;SDS011;9747;48.536;12.522;2022-08-21T13:50:25;3.20;;;3.00;;
19225;SDS011;9747;48.536;12.522;2022-08-21T13:52:55;2.80;;;2.70;;
19225;SDS011;9747;48.536;12.522;2022-08-21T13:55:33;3.10;;;2.90;;
19225;SDS011;9747;48.536;12.522;2022-08-21T13:58:05;2.92;;;2.80;;
19225;SDS011;9747;48.536;12.522;2022-08-21T14:00:34;3.05;;;2.85;;
19225;SDS011;9747;48.536;12.522;2022-08-21T14:03:11;3.13;;;2.92;;
19225;SDS011;9747;48.536;12.522;2022-08-21T14:05:52;2.58;;;2.47;;
19225;SDS011;9747;48.536;12.522;2022-08-21T14:08:21;3.30;;;3.10;;
19225;SDS011;9747;48.536;12.522;2022-08-21T14:10:53;2.92;;;2.83;;
19225;SDS011;9747;48.536;12.522;2022-08-21T14:13:26;3.10;;;2.90;;
19225;SDS011;9747;48.536;12.522;2022-08-21T14:16:03;3.00;;;2.85;;
19225;SDS011;9747;48.536;12.522;2022-08-21T14:18:48;3.30;;;3.10;;
19225;SDS011;9747;48.536;12.522;2022-08-21T14:21:27;2.90;;;2.80;;
19225;SDS011;9747;48.536;12.522;2022-08-21T14:24:03;2.63;;;2.53;;
19225;SDS011;9747;48.536;12.522;2022-08-21T14:26:35;3.15;;;3.00;;
19225;SDS011;9747;48.536;12.522;2022-08-21T14:29:11;3.13;;;2.92;;
19225;SDS011;9747;48.536;12.522;2022-08-21T14:31:41;3.20;;;3.00;;
19225;SDS011;9747;48.536;12.522;2022-08-21T14:34:12;2.97;;;2.88;;
19225;SDS011;9747;48.536;12.522;2022-08-21T14:36:42;2.92;;;2.80;;
19225;SDS011;9747;48.536;12.522;2022-08-21T14:39:09;3.03;;;2.88;;
19225;SDS011;9747;48.536;12.522;2022-08-21T14:41:37;2.78;;;2.67;;
19225;SDS011;9747;48.536;12.522;2022-08-21T14:44:04;2.75;;;2.65;;
19225;SDS011;9747;48.536;12.522;2022-08-21T14:46:33;2.90;;;2.80;;
19225;SDS011;9747;48.536;12.522;2022-08-21T14:49:01;3.03;;;2.83;;
19225;SDS011;9747;48.536;12.522;2022-08-21T14:51:29;2.85;;;2.72;;
19225;SDS011;9747;48.536;12.522;2022-08-21T14:53:57;2.90;;;2.70;;
19225;SDS011;9747;48.536;12.522;2022-08-21T14:56:24;2.72;;;2.60;;
19225;SDS011;9747;48.536;12.522;2022-08-21T14:58:52;2.80;;;2.70;;
19225;SDS011;9747;48.536;12.522;2022-08-21T15:01:21;2.97;;;2.78;;
19225;SDS011;9747;48.536;12.522;2022-08-21T15:03:50;2.70;;;2.60;;
19225;SDS011;9747;48.536;12.522;2022-08-21T15:06:17;2.50;;;2.40;;
19225;SDS011;9747;48.536;12.522;2022-08-21T15:08:46;2.42;;;2.33;;
19225;SDS011;9747;48.536;12.522;2022-08-21T15:11:16;2.83;;;2.72;;